sensor_id;sensor_type;location;lat;lon;timestamp;temperature;humidity
26503;DHT22;14177;51.520;6.764;2023-07-31T00:00:06;16.30;99.90
26503;DHT22;14177;51.520;6.764;2023-07-31T00:02:36;16.40;99.90
26503;DHT22;14177;51.520;6.764;2023-07-31T00:05:03;16.40;99.90
26503;DHT22;14177;51.520;6.764;2023-07-31T00:07:32;16.50;99.90
26503;DHT22;14177;51.520;6.764;2023-07-31T00:09:59;16.60;99.90
26503;DHT22;14177;51.520;6.764;2023-07-31T00:12:26;16.60;99.90
26503;DHT22;14177;51.520;6.764;2023-07-31T00:14:53;16.70;99.90
26503;DHT22;14177;51.520;6.764;2023-07-31T00:17:20;16.70;99.90
26503;DHT22;14177;51.520;6.764;2023-07-31T00:19:47;16.60;99.90
26503;DHT22;14177;51.520;6.764;2023-07-31T00:22:17;16.70;99.90
26503;DHT22;14177;51.520;6.764;2023-07-31T00:24:44;16.60;99.90
26503;DHT22;14177;51.520;6.764;2023-07-31T00:27:11;16.60;99.90
26503;DHT22;14177;51.520;6.764;2023-07-31T00:29:38;16.60;99.90
26503;DHT22;14177;51.520;6.764;2023-07-31T00:32:05;16.60;99.90
26503;DHT22;14177;51.520;6.764;2023-07-31T00:34:32;16.60;99.90
26503;DHT22;14177;51.520;6.764;2023-07-31T00:36:59;16.60;99.90
26503;DHT22;14177;51.520;6.764;2023-07-31T00:39:26;16.60;99.90
26503;DHT22;14177;51.520;6.764;2023-07-31T00:41:53;16.60;99.90
26503;DHT22;14177;51.520;6.764;2023-07-31T00:44:20;16.60;99.90
26503;DHT22;14177;51.520;6.764;2023-07-31T00:46:48;16.60;99.90
26503;DHT22;14177;51.520;6.764;2023-07-31T00:49:16;16.60;99.90
26503;DHT22;14177;51.520;6.764;2023-07-31T00:51:43;16.60;99.90
26503;DHT22;14177;51.520;6.764;2023-07-31T00:54:11;16.60;99.90
26503;DHT22;14177;51.520;6.764;2023-07-31T00:56:38;16.70;99.90
26503;DHT22;14177;51.520;6.764;2023-07-31T00:59:07;16.70;99.90
26503;DHT22;14177;51.520;6.764;2023-07-31T01:01:34;16.60;99.90
26503;DHT22;14177;51.520;6.764;2023-07-31T01:04:03;16.60;99.90
26503;DHT22;14177;51.520;6.764;2023-07-31T01:10:08;16.70;99.90
26503;DHT22;14177;51.520;6.764;2023-07-31T01:12:45;16.70;99.90
26503;DHT22;14177;51.520;6.764;2023-07-31T01:15:13;16.70;99.90
26503;DHT22;14177;51.520;6.764;2023-07-31T01:17:42;16.80;99.90
26503;DHT22;14177;51.520;6.764;2023-07-31T01:20:23;16.80;99.90
26503;DHT22;14177;51.520;6.764;2023-07-31T01:26:23;16.80;99.90
26503;DHT22;14177;51.520;6.764;2023-07-31T01:31:59;16.80;99.90
26503;DHT22;14177;51.520;6.764;2023-07-31T01:34:30;16.80;99.90
26503;DHT22;14177;51.520;6.764;2023-07-31T01:36:58;16.80;99.90
26503;DHT22;14177;51.520;6.764;2023-07-31T01:39:25;16.80;99.90
26503;DHT22;14177;51.520;6.764;2023-07-31T01:41:52;16.90;99.90
26503;DHT22;14177;51.520;6.764;2023-07-31T01:44:20;16.90;99.90
26503;DHT22;14177;51.520;6.764;2023-07-31T01:46:47;16.90;99.90
26503;DHT22;14177;51.520;6.764;2023-07-31T01:49:14;16.90;99.90
26503;DHT22;14177;51.520;6.764;2023-07-31T01:51:41;16.90;99.90
26503;DHT22;14177;51.520;6.764;2023-07-31T01:54:08;16.90;99.90
26503;DHT22;14177;51.520;6.764;2023-07-31T01:56:35;16.90;99.90
26503;DHT22;14177;51.520;6.764;2023-07-31T01:59:03;16.90;99.90
26503;DHT22;14177;51.520;6.764;2023-07-31T02:01:30;16.90;99.90
26503;DHT22;14177;51.520;6.764;2023-07-31T02:03:58;16.90;99.90
26503;DHT22;14177;51.520;6.764;2023-07-31T02:06:25;16.90;99.90
26503;DHT22;14177;51.520;6.764;2023-07-31T02:08:52;16.90;99.90
26503;DHT22;14177;51.520;6.764;2023-07-31T02:11:19;16.90;99.90
26503;DHT22;14177;51.520;6.764;2023-07-31T02:13:49;16.90;99.90
26503;DHT22;14177;51.520;6.764;2023-07-31T02:16:16;16.90;99.90
26503;DHT22;14177;51.520;6.764;2023-07-31T02:18:43;16.90;99.90
26503;DHT22;14177;51.520;6.764;2023-07-31T02:21:10;16.90;99.90
26503;DHT22;14177;51.520;6.764;2023-07-31T02:23:37;16.90;99.90
26503;DHT22;14177;51.520;6.764;2023-07-31T02:26:04;16.90;99.90
26503;DHT22;14177;51.520;6.764;2023-07-31T02:28:32;16.90;99.90
26503;DHT22;14177;51.520;6.764;2023-07-31T02:30:59;16.90;99.90
26503;DHT22;14177;51.520;6.764;2023-07-31T02:33:26;16.90;99.90
26503;DHT22;14177;51.520;6.764;2023-07-31T02:35:53;16.90;99.90
26503;DHT22;14177;51.520;6.764;2023-07-31T02:38:21;16.90;99.90
26503;DHT22;14177;51.520;6.764;2023-07-31T02:40:48;16.90;99.90
26503;DHT22;14177;51.520;6.764;2023-07-31T02:43:16;16.90;99.90
26503;DHT22;14177;51.520;6.764;2023-07-31T02:45:42;16.90;99.90
26503;DHT22;14177;51.520;6.764;2023-07-31T02:48:10;16.90;99.90
26503;DHT22;14177;51.520;6.764;2023-07-31T02:50:37;16.90;99.90
26503;DHT22;14177;51.520;6.764;2023-07-31T02:53:04;16.90;99.90
26503;DHT22;14177;51.520;6.764;2023-07-31T02:55:31;16.90;99.90
26503;DHT22;14177;51.520;6.764;2023-07-31T02:57:58;16.90;99.90
26503;DHT22;14177;51.520;6.764;2023-07-31T03:00:25;16.90;99.90
26503;DHT22;14177;51.520;6.764;2023-07-31T03:02:52;16.90;99.90
26503;DHT22;14177;51.520;6.764;2023-07-31T03:05:20;16.90;99.90
26503;DHT22;14177;51.520;6.764;2023-07-31T03:07:47;16.90;99.90
26503;DHT22;14177;51.520;6.764;2023-07-31T03:10:14;16.90;99.90
26503;DHT22;14177;51.520;6.764;2023-07-31T03:12:41;16.90;99.90
26503;DHT22;14177;51.520;6.764;2023-07-31T03:15:09;16.90;99.90
26503;DHT22;14177;51.520;6.764;2023-07-31T03:17:36;16.90;99.90
26503;DHT22;14177;51.520;6.764;2023-07-31T03:20:04;16.90;99.90
26503;DHT22;14177;51.520;6.764;2023-07-31T03:22:31;16.90;99.90
26503;DHT22;14177;51.520;6.764;2023-07-31T03:24:58;16.90;99.90
26503;DHT22;14177;51.520;6.764;2023-07-31T03:27:25;16.90;99.90
26503;DHT22;14177;51.520;6.764;2023-07-31T03:29:52;16.90;99.90
26503;DHT22;14177;51.520;6.764;2023-07-31T03:32:19;16.90;99.90
26503;DHT22;14177;51.520;6.764;2023-07-31T03:34:46;17.00;99.90
26503;DHT22;14177;51.520;6.764;2023-07-31T03:37:13;17.00;99.90
26503;DHT22;14177;51.520;6.764;2023-07-31T03:39:40;17.00;99.90
26503;DHT22;14177;51.520;6.764;2023-07-31T03:42:07;17.00;99.90
26503;DHT22;14177;51.520;6.764;2023-07-31T03:44:34;17.00;99.90
26503;DHT22;14177;51.520;6.764;2023-07-31T03:47:01;17.00;99.90
26503;DHT22;14177;51.520;6.764;2023-07-31T03:49:29;17.10;99.90
26503;DHT22;14177;51.520;6.764;2023-07-31T03:51:56;17.10;99.90
26503;DHT22;14177;51.520;6.764;2023-07-31T03:54:23;17.10;99.90
26503;DHT22;14177;51.520;6.764;2023-07-31T03:56:50;17.20;99.90
26503;DHT22;14177;51.520;6.764;2023-07-31T03:59:16;17.20;99.90
26503;DHT22;14177;51.520;6.764;2023-07-31T04:01:43;17.20;99.90
26503;DHT22;14177;51.520;6.764;2023-07-31T04:04:10;17.20;99.90
26503;DHT22;14177;51.520;6.764;2023-07-31T04:06:37;17.20;99.90
26503;DHT22;14177;51.520;6.764;2023-07-31T04:09:04;17.20;99.90
26503;DHT22;14177;51.520;6.764;2023-07-31T04:11:31;17.20;99.90
26503;DHT22;14177;51.520;6.764;2023-07-31T04:13:58;17.20;99.90
26503;DHT22;14177;51.520;6.764;2023-07-31T04:16:25;17.20;99.90
26503;DHT22;14177;51.520;6.764;2023-07-31T04:18:52;17.20;99.90
26503;DHT22;14177;51.520;6.764;2023-07-31T04:21:19;17.30;99.90
26503;DHT22;14177;51.520;6.764;2023-07-31T04:23:46;17.20;99.90
26503;DHT22;14177;51.520;6.764;2023-07-31T04:26:13;17.30;99.90
26503;DHT22;14177;51.520;6.764;2023-07-31T04:28:40;17.30;99.90
26503;DHT22;14177;51.520;6.764;2023-07-31T04:31:07;17.30;99.90
26503;DHT22;14177;51.520;6.764;2023-07-31T04:33:34;17.30;99.90
26503;DHT22;14177;51.520;6.764;2023-07-31T04:36:01;17.40;99.90
26503;DHT22;14177;51.520;6.764;2023-07-31T04:38:28;17.40;99.90
26503;DHT22;14177;51.520;6.764;2023-07-31T04:40:54;17.40;99.90
26503;DHT22;14177;51.520;6.764;2023-07-31T04:43:22;17.40;99.90
26503;DHT22;14177;51.520;6.764;2023-07-31T04:45:49;17.40;99.90
26503;DHT22;14177;51.520;6.764;2023-07-31T04:48:16;17.40;99.90
26503;DHT22;14177;51.520;6.764;2023-07-31T04:50:43;17.40;99.90
26503;DHT22;14177;51.520;6.764;2023-07-31T04:53:10;17.40;99.90
26503;DHT22;14177;51.520;6.764;2023-07-31T04:55:37;17.50;99.90
26503;DHT22;14177;51.520;6.764;2023-07-31T04:58:05;17.50;99.90
26503;DHT22;14177;51.520;6.764;2023-07-31T05:00:32;17.50;99.90
26503;DHT22;14177;51.520;6.764;2023-07-31T05:02:59;17.50;99.90
26503;DHT22;14177;51.520;6.764;2023-07-31T05:05:26;17.60;99.90
26503;DHT22;14177;51.520;6.764;2023-07-31T05:07:53;17.60;99.90
26503;DHT22;14177;51.520;6.764;2023-07-31T05:10:20;17.60;99.90
26503;DHT22;14177;51.520;6.764;2023-07-31T05:12:47;17.60;99.90
26503;DHT22;14177;51.520;6.764;2023-07-31T05:15:14;17.60;99.90
26503;DHT22;14177;51.520;6.764;2023-07-31T05:17:42;17.60;99.90
26503;DHT22;14177;51.520;6.764;2023-07-31T05:20:09;17.60;99.90
26503;DHT22;14177;51.520;6.764;2023-07-31T05:22:37;17.60;99.90
26503;DHT22;14177;51.520;6.764;2023-07-31T05:25:04;17.60;99.90
26503;DHT22;14177;51.520;6.764;2023-07-31T05:27:32;17.60;99.90
26503;DHT22;14177;51.520;6.764;2023-07-31T05:29:59;17.60;99.90
26503;DHT22;14177;51.520;6.764;2023-07-31T05:32:26;17.60;99.90
26503;DHT22;14177;51.520;6.764;2023-07-31T05:34:53;17.60;99.90
26503;DHT22;14177;51.520;6.764;2023-07-31T05:37:21;17.50;99.90
26503;DHT22;14177;51.520;6.764;2023-07-31T05:39:49;17.50;99.90
26503;DHT22;14177;51.520;6.764;2023-07-31T05:42:16;17.50;99.90
26503;DHT22;14177;51.520;6.764;2023-07-31T05:44:43;17.50;99.90
26503;DHT22;14177;51.520;6.764;2023-07-31T05:47:10;17.50;99.90
26503;DHT22;14177;51.520;6.764;2023-07-31T05:49:37;17.50;99.90
26503;DHT22;14177;51.520;6.764;2023-07-31T05:52:04;17.50;99.90
26503;DHT22;14177;51.520;6.764;2023-07-31T05:54:32;17.50;99.90
26503;DHT22;14177;51.520;6.764;2023-07-31T05:56:59;17.60;99.90
26503;DHT22;14177;51.520;6.764;2023-07-31T05:59:26;17.60;99.90
26503;DHT22;14177;51.520;6.764;2023-07-31T06:01:53;17.50;99.90
26503;DHT22;14177;51.520;6.764;2023-07-31T06:04:20;17.50;99.90
26503;DHT22;14177;51.520;6.764;2023-07-31T06:06:51;17.50;99.90
26503;DHT22;14177;51.520;6.764;2023-07-31T06:09:18;17.50;99.90
26503;DHT22;14177;51.520;6.764;2023-07-31T06:11:46;17.50;99.90
26503;DHT22;14177;51.520;6.764;2023-07-31T06:14:14;17.50;99.90
26503;DHT22;14177;51.520;6.764;2023-07-31T06:16:41;17.50;99.90
26503;DHT22;14177;51.520;6.764;2023-07-31T06:19:08;17.40;99.90
26503;DHT22;14177;51.520;6.764;2023-07-31T06:21:35;17.50;99.90
26503;DHT22;14177;51.520;6.764;2023-07-31T06:24:05;17.40;99.90
26503;DHT22;14177;51.520;6.764;2023-07-31T06:26:32;17.50;99.90
26503;DHT22;14177;51.520;6.764;2023-07-31T06:28:59;17.50;99.90
26503;DHT22;14177;51.520;6.764;2023-07-31T06:31:26;17.50;99.90
26503;DHT22;14177;51.520;6.764;2023-07-31T06:33:54;17.40;99.90
26503;DHT22;14177;51.520;6.764;2023-07-31T06:36:21;17.40;99.90
26503;DHT22;14177;51.520;6.764;2023-07-31T06:38:48;17.40;99.90
26503;DHT22;14177;51.520;6.764;2023-07-31T06:41:15;17.40;99.90
26503;DHT22;14177;51.520;6.764;2023-07-31T06:43:42;17.40;99.90
26503;DHT22;14177;51.520;6.764;2023-07-31T06:46:09;17.40;99.90
26503;DHT22;14177;51.520;6.764;2023-07-31T06:48:37;17.40;99.90
26503;DHT22;14177;51.520;6.764;2023-07-31T06:51:04;17.40;99.90
26503;DHT22;14177;51.520;6.764;2023-07-31T06:53:31;17.40;99.90
26503;DHT22;14177;51.520;6.764;2023-07-31T06:55:58;17.40;99.90
26503;DHT22;14177;51.520;6.764;2023-07-31T06:58:25;17.40;99.90
26503;DHT22;14177;51.520;6.764;2023-07-31T07:00:52;17.40;99.90
26503;DHT22;14177;51.520;6.764;2023-07-31T07:03:19;17.30;99.90
26503;DHT22;14177;51.520;6.764;2023-07-31T07:05:46;17.30;99.90
26503;DHT22;14177;51.520;6.764;2023-07-31T07:08:14;17.30;99.90
26503;DHT22;14177;51.520;6.764;2023-07-31T07:10:41;17.20;99.90
26503;DHT22;14177;51.520;6.764;2023-07-31T07:13:08;17.20;99.90
26503;DHT22;14177;51.520;6.764;2023-07-31T07:15:35;17.20;99.90
26503;DHT22;14177;51.520;6.764;2023-07-31T07:18:02;17.10;99.90
26503;DHT22;14177;51.520;6.764;2023-07-31T07:20:30;17.10;99.90
26503;DHT22;14177;51.520;6.764;2023-07-31T07:22:57;17.10;99.90
26503;DHT22;14177;51.520;6.764;2023-07-31T07:25:24;17.10;99.90
26503;DHT22;14177;51.520;6.764;2023-07-31T07:27:51;17.10;99.90
26503;DHT22;14177;51.520;6.764;2023-07-31T07:30:18;17.10;99.90
26503;DHT22;14177;51.520;6.764;2023-07-31T07:32:44;17.10;99.90
26503;DHT22;14177;51.520;6.764;2023-07-31T07:35:11;17.10;99.90
26503;DHT22;14177;51.520;6.764;2023-07-31T07:37:38;17.10;99.90
26503;DHT22;14177;51.520;6.764;2023-07-31T07:40:06;17.00;99.90
26503;DHT22;14177;51.520;6.764;2023-07-31T07:42:33;17.10;99.90
26503;DHT22;14177;51.520;6.764;2023-07-31T07:45:00;17.00;99.90
26503;DHT22;14177;51.520;6.764;2023-07-31T07:47:27;17.00;99.90
26503;DHT22;14177;51.520;6.764;2023-07-31T07:49:55;17.00;99.90
26503;DHT22;14177;51.520;6.764;2023-07-31T07:52:22;17.00;99.90
26503;DHT22;14177;51.520;6.764;2023-07-31T07:54:49;17.00;99.90
26503;DHT22;14177;51.520;6.764;2023-07-31T07:57:16;17.00;99.90
26503;DHT22;14177;51.520;6.764;2023-07-31T07:59:43;16.90;99.90
26503;DHT22;14177;51.520;6.764;2023-07-31T08:02:10;16.90;99.90
26503;DHT22;14177;51.520;6.764;2023-07-31T08:04:37;16.90;99.90
26503;DHT22;14177;51.520;6.764;2023-07-31T08:07:05;16.80;99.90
26503;DHT22;14177;51.520;6.764;2023-07-31T08:09:32;16.80;99.90
26503;DHT22;14177;51.520;6.764;2023-07-31T08:11:59;16.80;99.90
26503;DHT22;14177;51.520;6.764;2023-07-31T08:14:29;16.80;99.90
26503;DHT22;14177;51.520;6.764;2023-07-31T08:16:59;16.80;99.90
26503;DHT22;14177;51.520;6.764;2023-07-31T08:19:27;16.70;99.90
26503;DHT22;14177;51.520;6.764;2023-07-31T08:21:54;16.70;99.90
26503;DHT22;14177;51.520;6.764;2023-07-31T08:24:24;16.70;99.90
26503;DHT22;14177;51.520;6.764;2023-07-31T08:26:51;16.70;99.90
26503;DHT22;14177;51.520;6.764;2023-07-31T08:29:18;16.70;99.90
26503;DHT22;14177;51.520;6.764;2023-07-31T08:31:45;16.80;99.90
26503;DHT22;14177;51.520;6.764;2023-07-31T08:34:12;16.80;99.90
26503;DHT22;14177;51.520;6.764;2023-07-31T08:36:39;16.90;99.90
26503;DHT22;14177;51.520;6.764;2023-07-31T08:39:06;16.80;99.90
26503;DHT22;14177;51.520;6.764;2023-07-31T08:41:40;16.90;99.90
26503;DHT22;14177;51.520;6.764;2023-07-31T08:44:07;16.90;99.90
26503;DHT22;14177;51.520;6.764;2023-07-31T08:46:34;16.90;99.90
26503;DHT22;14177;51.520;6.764;2023-07-31T08:49:05;16.90;99.90
26503;DHT22;14177;51.520;6.764;2023-07-31T08:51:34;16.80;99.90
26503;DHT22;14177;51.520;6.764;2023-07-31T08:54:02;16.80;99.90
26503;DHT22;14177;51.520;6.764;2023-07-31T08:56:32;16.80;99.90
26503;DHT22;14177;51.520;6.764;2023-07-31T08:59:02;16.80;99.90
26503;DHT22;14177;51.520;6.764;2023-07-31T09:01:37;16.90;99.90
26503;DHT22;14177;51.520;6.764;2023-07-31T09:04:11;16.80;99.90
26503;DHT22;14177;51.520;6.764;2023-07-31T09:06:41;16.80;99.90
26503;DHT22;14177;51.520;6.764;2023-07-31T09:09:09;16.90;99.90
26503;DHT22;14177;51.520;6.764;2023-07-31T09:11:36;16.80;99.90
26503;DHT22;14177;51.520;6.764;2023-07-31T09:14:04;16.80;99.90
26503;DHT22;14177;51.520;6.764;2023-07-31T09:16:35;16.80;99.90
26503;DHT22;14177;51.520;6.764;2023-07-31T09:19:28;16.90;99.90
26503;DHT22;14177;51.520;6.764;2023-07-31T09:21:56;16.90;99.90
26503;DHT22;14177;51.520;6.764;2023-07-31T09:24:31;16.90;99.90
26503;DHT22;14177;51.520;6.764;2023-07-31T09:27:00;16.90;99.90
26503;DHT22;14177;51.520;6.764;2023-07-31T09:29:29;16.90;99.90
26503;DHT22;14177;51.520;6.764;2023-07-31T09:31:56;17.00;99.90
26503;DHT22;14177;51.520;6.764;2023-07-31T09:34:37;16.90;99.90
26503;DHT22;14177;51.520;6.764;2023-07-31T09:37:07;16.90;99.90
26503;DHT22;14177;51.520;6.764;2023-07-31T09:39:46;17.00;99.90
26503;DHT22;14177;51.520;6.764;2023-07-31T09:42:14;17.00;99.90
26503;DHT22;14177;51.520;6.764;2023-07-31T09:44:51;17.00;99.90
26503;DHT22;14177;51.520;6.764;2023-07-31T09:47:22;17.00;99.90
26503;DHT22;14177;51.520;6.764;2023-07-31T09:49:53;17.00;99.90
26503;DHT22;14177;51.520;6.764;2023-07-31T09:52:20;17.00;99.90
26503;DHT22;14177;51.520;6.764;2023-07-31T09:54:47;17.10;99.90
26503;DHT22;14177;51.520;6.764;2023-07-31T09:57:17;17.20;99.90
26503;DHT22;14177;51.520;6.764;2023-07-31T09:59:46;17.20;99.90
26503;DHT22;14177;51.520;6.764;2023-07-31T10:02:17;17.20;99.90
26503;DHT22;14177;51.520;6.764;2023-07-31T10:04:52;17.20;99.90
26503;DHT22;14177;51.520;6.764;2023-07-31T10:07:25;17.20;99.90
26503;DHT22;14177;51.520;6.764;2023-07-31T10:09:55;17.20;99.90
26503;DHT22;14177;51.520;6.764;2023-07-31T10:12:29;17.20;99.90
26503;DHT22;14177;51.520;6.764;2023-07-31T10:14:59;17.20;99.90
26503;DHT22;14177;51.520;6.764;2023-07-31T10:17:27;17.20;99.90
26503;DHT22;14177;51.520;6.764;2023-07-31T10:19:58;17.20;99.90
26503;DHT22;14177;51.520;6.764;2023-07-31T10:22:30;17.20;99.90
26503;DHT22;14177;51.520;6.764;2023-07-31T10:24:59;17.30;99.90
26503;DHT22;14177;51.520;6.764;2023-07-31T10:27:27;17.30;99.90
26503;DHT22;14177;51.520;6.764;2023-07-31T10:29:56;17.30;99.90
26503;DHT22;14177;51.520;6.764;2023-07-31T10:32:25;17.40;99.90
26503;DHT22;14177;51.520;6.764;2023-07-31T10:34:54;17.40;99.90
26503;DHT22;14177;51.520;6.764;2023-07-31T10:42:28;17.60;99.90
26503;DHT22;14177;51.520;6.764;2023-07-31T10:44:58;17.70;99.90
26503;DHT22;14177;51.520;6.764;2023-07-31T10:47:26;17.70;99.90
26503;DHT22;14177;51.520;6.764;2023-07-31T10:52:52;17.90;99.90
26503;DHT22;14177;51.520;6.764;2023-07-31T10:55:31;18.00;99.90
26503;DHT22;14177;51.520;6.764;2023-07-31T10:58:10;17.90;99.90
26503;DHT22;14177;51.520;6.764;2023-07-31T11:00:47;18.00;99.90
26503;DHT22;14177;51.520;6.764;2023-07-31T11:03:17;18.00;99.90
26503;DHT22;14177;51.520;6.764;2023-07-31T11:06:01;18.00;99.90
26503;DHT22;14177;51.520;6.764;2023-07-31T11:08:32;18.00;99.90
26503;DHT22;14177;51.520;6.764;2023-07-31T11:13:32;18.20;99.90
26503;DHT22;14177;51.520;6.764;2023-07-31T11:16:00;18.20;99.90
26503;DHT22;14177;51.520;6.764;2023-07-31T11:18:27;18.30;99.90
26503;DHT22;14177;51.520;6.764;2023-07-31T11:20:54;18.30;99.90
26503;DHT22;14177;51.520;6.764;2023-07-31T11:23:22;18.30;99.90
26503;DHT22;14177;51.520;6.764;2023-07-31T11:25:50;18.30;99.90
26503;DHT22;14177;51.520;6.764;2023-07-31T11:28:19;18.40;99.90
26503;DHT22;14177;51.520;6.764;2023-07-31T11:30:46;18.40;99.90
26503;DHT22;14177;51.520;6.764;2023-07-31T11:33:14;18.40;99.90
26503;DHT22;14177;51.520;6.764;2023-07-31T11:35:50;18.40;99.90
26503;DHT22;14177;51.520;6.764;2023-07-31T11:38:31;18.40;99.90
26503;DHT22;14177;51.520;6.764;2023-07-31T11:41:04;18.40;99.90
26503;DHT22;14177;51.520;6.764;2023-07-31T11:43:32;18.30;99.90
26503;DHT22;14177;51.520;6.764;2023-07-31T11:46:00;18.40;99.90
26503;DHT22;14177;51.520;6.764;2023-07-31T11:48:34;18.40;99.90
26503;DHT22;14177;51.520;6.764;2023-07-31T11:51:09;18.40;99.90
26503;DHT22;14177;51.520;6.764;2023-07-31T11:56:18;18.40;99.90
26503;DHT22;14177;51.520;6.764;2023-07-31T11:58:49;18.30;99.90
26503;DHT22;14177;51.520;6.764;2023-07-31T12:01:19;18.30;99.90
26503;DHT22;14177;51.520;6.764;2023-07-31T12:03:49;18.30;99.90
26503;DHT22;14177;51.520;6.764;2023-07-31T12:06:17;18.40;99.90
26503;DHT22;14177;51.520;6.764;2023-07-31T12:08:44;18.30;99.90
26503;DHT22;14177;51.520;6.764;2023-07-31T12:11:11;18.40;99.90
26503;DHT22;14177;51.520;6.764;2023-07-31T12:13:38;18.30;99.90
26503;DHT22;14177;51.520;6.764;2023-07-31T12:16:05;18.20;99.90
26503;DHT22;14177;51.520;6.764;2023-07-31T12:18:36;18.20;99.90
26503;DHT22;14177;51.520;6.764;2023-07-31T12:21:08;18.20;99.90
26503;DHT22;14177;51.520;6.764;2023-07-31T12:23:38;18.20;99.90
26503;DHT22;14177;51.520;6.764;2023-07-31T12:26:13;18.10;99.90
26503;DHT22;14177;51.520;6.764;2023-07-31T12:28:45;18.10;99.90
26503;DHT22;14177;51.520;6.764;2023-07-31T12:31:21;18.20;99.90
26503;DHT22;14177;51.520;6.764;2023-07-31T12:33:51;18.30;99.90
26503;DHT22;14177;51.520;6.764;2023-07-31T12:36:21;18.30;99.90
26503;DHT22;14177;51.520;6.764;2023-07-31T12:38:51;18.40;99.90
26503;DHT22;14177;51.520;6.764;2023-07-31T12:41:19;18.50;99.90
26503;DHT22;14177;51.520;6.764;2023-07-31T12:43:46;18.50;99.90
26503;DHT22;14177;51.520;6.764;2023-07-31T12:46:13;18.50;99.90
26503;DHT22;14177;51.520;6.764;2023-07-31T12:48:40;18.50;99.90
26503;DHT22;14177;51.520;6.764;2023-07-31T12:51:07;18.60;99.90
26503;DHT22;14177;51.520;6.764;2023-07-31T12:53:35;18.50;99.90
26503;DHT22;14177;51.520;6.764;2023-07-31T12:56:02;18.50;99.90
26503;DHT22;14177;51.520;6.764;2023-07-31T12:58:30;18.50;99.90
26503;DHT22;14177;51.520;6.764;2023-07-31T13:00:57;18.50;99.90
26503;DHT22;14177;51.520;6.764;2023-07-31T13:03:24;18.50;99.90
26503;DHT22;14177;51.520;6.764;2023-07-31T13:05:52;18.60;99.90
26503;DHT22;14177;51.520;6.764;2023-07-31T13:08:19;18.60;99.90
26503;DHT22;14177;51.520;6.764;2023-07-31T13:10:46;18.60;99.90
26503;DHT22;14177;51.520;6.764;2023-07-31T13:13:13;18.70;99.90
26503;DHT22;14177;51.520;6.764;2023-07-31T13:15:40;18.70;99.90
26503;DHT22;14177;51.520;6.764;2023-07-31T13:18:09;18.80;99.90
26503;DHT22;14177;51.520;6.764;2023-07-31T13:20:36;18.80;99.90
26503;DHT22;14177;51.520;6.764;2023-07-31T13:23:03;18.80;99.90
26503;DHT22;14177;51.520;6.764;2023-07-31T13:25:29;18.80;99.90
26503;DHT22;14177;51.520;6.764;2023-07-31T13:27:57;18.70;99.90
26503;DHT22;14177;51.520;6.764;2023-07-31T13:30:27;18.70;99.90
26503;DHT22;14177;51.520;6.764;2023-07-31T13:32:54;18.70;99.90
26503;DHT22;14177;51.520;6.764;2023-07-31T13:35:21;18.70;99.90
26503;DHT22;14177;51.520;6.764;2023-07-31T13:37:48;18.70;99.90
26503;DHT22;14177;51.520;6.764;2023-07-31T13:40:15;18.80;99.90
26503;DHT22;14177;51.520;6.764;2023-07-31T13:42:42;18.80;99.90
26503;DHT22;14177;51.520;6.764;2023-07-31T13:45:09;18.80;99.90
26503;DHT22;14177;51.520;6.764;2023-07-31T13:47:36;18.90;99.90
26503;DHT22;14177;51.520;6.764;2023-07-31T13:50:04;18.90;99.90
26503;DHT22;14177;51.520;6.764;2023-07-31T13:52:31;18.90;99.90
26503;DHT22;14177;51.520;6.764;2023-07-31T13:54:58;18.90;99.90
26503;DHT22;14177;51.520;6.764;2023-07-31T13:57:25;18.90;99.90
26503;DHT22;14177;51.520;6.764;2023-07-31T13:59:52;19.00;99.90
26503;DHT22;14177;51.520;6.764;2023-07-31T14:02:19;19.10;99.90
26503;DHT22;14177;51.520;6.764;2023-07-31T14:04:46;19.20;99.90
26503;DHT22;14177;51.520;6.764;2023-07-31T14:07:13;19.40;99.90
26503;DHT22;14177;51.520;6.764;2023-07-31T14:09:40;19.50;99.90
26503;DHT22;14177;51.520;6.764;2023-07-31T14:12:07;19.60;99.90
26503;DHT22;14177;51.520;6.764;2023-07-31T14:14:34;19.70;99.90
26503;DHT22;14177;51.520;6.764;2023-07-31T14:17:01;19.80;99.90
26503;DHT22;14177;51.520;6.764;2023-07-31T14:19:29;19.70;99.90
26503;DHT22;14177;51.520;6.764;2023-07-31T14:21:58;19.70;99.90
26503;DHT22;14177;51.520;6.764;2023-07-31T14:24:38;19.70;99.90
26503;DHT22;14177;51.520;6.764;2023-07-31T14:27:05;19.60;99.90
26503;DHT22;14177;51.520;6.764;2023-07-31T14:29:33;19.60;99.90
26503;DHT22;14177;51.520;6.764;2023-07-31T14:31:59;19.60;99.90
26503;DHT22;14177;51.520;6.764;2023-07-31T14:34:27;19.60;99.90
26503;DHT22;14177;51.520;6.764;2023-07-31T14:36:54;19.60;99.90
26503;DHT22;14177;51.520;6.764;2023-07-31T14:39:21;19.50;99.90
26503;DHT22;14177;51.520;6.764;2023-07-31T14:41:48;19.50;99.90
26503;DHT22;14177;51.520;6.764;2023-07-31T14:44:15;19.50;99.90
26503;DHT22;14177;51.520;6.764;2023-07-31T14:46:42;19.40;99.90
26503;DHT22;14177;51.520;6.764;2023-07-31T14:49:09;19.40;99.90
26503;DHT22;14177;51.520;6.764;2023-07-31T14:51:36;19.40;99.90
26503;DHT22;14177;51.520;6.764;2023-07-31T14:54:03;19.30;99.90
26503;DHT22;14177;51.520;6.764;2023-07-31T14:56:30;19.20;99.90
26503;DHT22;14177;51.520;6.764;2023-07-31T14:58:57;19.20;99.90
26503;DHT22;14177;51.520;6.764;2023-07-31T15:01:24;19.10;99.90
26503;DHT22;14177;51.520;6.764;2023-07-31T15:03:52;19.10;99.90
26503;DHT22;14177;51.520;6.764;2023-07-31T15:06:19;18.90;99.90
26503;DHT22;14177;51.520;6.764;2023-07-31T15:08:46;18.90;99.90
26503;DHT22;14177;51.520;6.764;2023-07-31T15:11:13;18.80;99.90
26503;DHT22;14177;51.520;6.764;2023-07-31T15:13:42;18.80;99.90
26503;DHT22;14177;51.520;6.764;2023-07-31T15:16:09;18.80;99.90
26503;DHT22;14177;51.520;6.764;2023-07-31T15:18:37;18.80;99.90
26503;DHT22;14177;51.520;6.764;2023-07-31T15:21:04;18.80;99.90
26503;DHT22;14177;51.520;6.764;2023-07-31T15:23:33;18.80;99.90
26503;DHT22;14177;51.520;6.764;2023-07-31T15:26:00;18.90;99.90
26503;DHT22;14177;51.520;6.764;2023-07-31T15:28:28;18.90;99.90
26503;DHT22;14177;51.520;6.764;2023-07-31T15:30:55;19.00;99.90
26503;DHT22;14177;51.520;6.764;2023-07-31T15:33:22;19.00;99.90
26503;DHT22;14177;51.520;6.764;2023-07-31T15:35:49;19.10;99.90
26503;DHT22;14177;51.520;6.764;2023-07-31T15:38:16;19.10;99.90
26503;DHT22;14177;51.520;6.764;2023-07-31T15:40:43;19.10;99.90
26503;DHT22;14177;51.520;6.764;2023-07-31T15:43:10;19.10;99.90
26503;DHT22;14177;51.520;6.764;2023-07-31T15:45:37;19.20;99.90
26503;DHT22;14177;51.520;6.764;2023-07-31T15:48:04;19.20;99.90
26503;DHT22;14177;51.520;6.764;2023-07-31T15:50:31;19.20;99.90
26503;DHT22;14177;51.520;6.764;2023-07-31T15:52:58;19.20;99.90
26503;DHT22;14177;51.520;6.764;2023-07-31T15:55:25;19.20;99.90
26503;DHT22;14177;51.520;6.764;2023-07-31T15:57:53;19.10;99.90